»·PEaware :: N335AK KSAC-4S1

N335AK :: KSAC-4S1

FLIGHT INFORMATION

Flight Status: Arrived
Operator: Privately registered:
United States
More flights under this callsign
Pilot: Gabor H. (24209)
Aircraft: Unknown
(EPIC)
More flights by this aircraft type
Origin: KSAC Sacramento Executive
United States
Destination: 4S1 Gold Beach Mun
United States
More flights between these airports :: More routes between these airports
Route: SAC V23 RBL V195 FOT V27 CEC
File this flight plan on PilotEdge
Remarks:
Altitude:
(Current/Filed)
16,000ft
Speed:
(Current/Filed)
325kts
Departed: 16-Aug-20 08:11 AM
Arrived: 16-Aug-20 09:10 AM
Distance/Time
Traveled:
270nm/0:59
Distance/Time
To Go:
Arrived

Flight Plot

Page will automatically refresh every two minutes.

Flight plan parsing failed; only flown route is shown


Map Options




Map Legend


Flown Route
Filed Route
Departure Airport
Arrival Airport
Navaid (VOR, NDB)
Fix

Horizontal Profiles

Position Reports

Time Latitude Longitude Heading Altitude Ground
Speed
16-Aug-20 07:58 38.514770 -121.498394 226 23ft 0kts
16-Aug-20 07:59 38.514770 -121.498394 226 23ft 0kts
16-Aug-20 08:00 38.514770 -121.498394 226 23ft 0kts
16-Aug-20 08:01 38.514770 -121.498394 226 23ft 0kts
16-Aug-20 08:02 38.514770 -121.498394 226 23ft 0kts
16-Aug-20 08:03 38.514770 -121.498394 226 23ft 0kts
16-Aug-20 08:04 38.514770 -121.498394 226 23ft 0kts
16-Aug-20 08:05 38.514770 -121.498394 226 23ft 0kts
16-Aug-20 08:06 38.514389 -121.498153 109 23ft 13kts
16-Aug-20 08:07 38.511639 -121.497065 213 22ft 22kts
16-Aug-20 08:08 38.506306 -121.501138 168 19ft 0kts
16-Aug-20 08:09 38.505699 -121.500346 31 20ft 4kts
16-Aug-20 08:10 38.527894 -121.490914 353 1595ft 151kts
16-Aug-20 08:11 38.583765 -121.503140 353 2823ft 225kts
16-Aug-20 08:12 38.644780 -121.516673 353 6005ft 231kts
16-Aug-20 08:13 38.707182 -121.545083 339 8892ft 249kts
16-Aug-20 08:14 38.772820 -121.580147 336 11467ft 264kts
16-Aug-20 08:15 38.841709 -121.617165 335 13728ft 274kts
16-Aug-20 08:16 38.911914 -121.654924 334 15688ft 281kts
16-Aug-20 08:17 38.989344 -121.696674 334 16035ft 324kts
16-Aug-20 08:18 39.075208 -121.743070 334 16041ft 341kts
16-Aug-20 08:19 39.165703 -121.782900 343 16035ft 347kts
16-Aug-20 08:20 39.260093 -121.813557 344 16040ft 348kts
16-Aug-20 08:21 39.352790 -121.848581 336 16052ft 348kts
16-Aug-20 08:22 39.442467 -121.894564 336 16054ft 348kts
16-Aug-20 08:23 39.532276 -121.940915 336 16055ft 348kts
16-Aug-20 08:24 39.622382 -121.987551 336 16055ft 348kts
16-Aug-20 08:25 39.712421 -122.034284 336 16056ft 348kts
16-Aug-20 08:26 39.802207 -122.081013 336 16056ft 348kts
16-Aug-20 08:27 39.891866 -122.127807 336 16055ft 348kts
16-Aug-20 08:28 39.981846 -122.174899 336 16050ft 348kts
16-Aug-20 08:29 40.071738 -122.222086 335 16048ft 348kts
16-Aug-20 08:30 40.122919 -122.317822 288 16043ft 333kts
16-Aug-20 08:31 40.156533 -122.430743 287 16043ft 332kts
16-Aug-20 08:32 40.189680 -122.543210 287 16036ft 332kts
16-Aug-20 08:33 40.222568 -122.655271 286 16027ft 332kts
16-Aug-20 08:34 40.255678 -122.768587 286 16018ft 332kts
16-Aug-20 08:35 40.288541 -122.881555 286 16009ft 332kts
16-Aug-20 08:36 40.321330 -122.994724 285 15999ft 333kts
16-Aug-20 08:37 40.354251 -123.108889 285 15998ft 336kts
16-Aug-20 08:38 40.387303 -123.224044 284 16012ft 337kts
16-Aug-20 08:39 40.420178 -123.339066 284 16030ft 336kts
16-Aug-20 08:40 40.452886 -123.453998 284 16036ft 336kts
16-Aug-20 08:41 40.485443 -123.568920 284 16036ft 336kts
16-Aug-20 08:42 40.517556 -123.682742 284 16036ft 335kts
16-Aug-20 08:43 40.549967 -123.797994 284 16036ft 335kts
16-Aug-20 08:44 40.582069 -123.912792 284 16037ft 335kts
16-Aug-20 08:45 40.614242 -124.028409 284 16037ft 335kts
16-Aug-20 08:46 40.646103 -124.143396 284 16037ft 335kts
16-Aug-20 08:47 40.705057 -124.231782 351 16044ft 358kts
16-Aug-20 08:49 40.804621 -124.235292 359 16039ft 359kts
16-Aug-20 08:50 40.904678 -124.235878 359 16040ft 360kts
16-Aug-20 08:51 41.004369 -124.236398 359 16040ft 360kts
16-Aug-20 08:52 41.101588 -124.237002 358 16041ft 362kts
16-Aug-20 08:53 41.202888 -124.237509 358 15680ft 371kts
16-Aug-20 08:54 41.305646 -124.238087 358 14082ft 362kts
16-Aug-20 08:55 41.403432 -124.238665 358 12529ft 344kts
16-Aug-20 08:56 41.497567 -124.239185 357 11028ft 330kts
16-Aug-20 08:57 41.584549 -124.239714 356 10229ft 299kts
16-Aug-20 08:58 41.666347 -124.240221 356 10030ft 299kts
16-Aug-20 08:59 41.752157 -124.240713 356 9430ft 324kts
16-Aug-20 09:00 41.832507 -124.256057 343 8054ft 260kts
16-Aug-20 09:01 41.902046 -124.276044 343 8040ft 258kts
16-Aug-20 09:02 41.973634 -124.296650 343 7285ft 265kts
16-Aug-20 09:03 42.044364 -124.317074 344 6126ft 256kts
16-Aug-20 09:04 42.111593 -124.336529 345 5026ft 251kts
16-Aug-20 09:05 42.179159 -124.357419 340 3923ft 248kts
16-Aug-20 09:05 42.233258 -124.382301 340 3019ft 247kts
16-Aug-20 09:06 42.298251 -124.413212 340 1943ft 248kts
16-Aug-20 09:08 42.374394 -124.424121 356 995ft 193kts
16-Aug-20 09:09 42.410584 -124.424398 355 80ft 94kts
16-Aug-20 09:09 42.419078 -124.425309 354 13ft 15kts
16-Aug-20 09:10 42.418224 -124.424459 102 17ft 0kts
16-Aug-20 09:11 42.418548 -124.423629 151 17ft 3kts
16-Aug-20 09:12 42.418518 -124.423619 166 17ft 0kts
16-Aug-20 09:13 42.418518 -124.423619 166 17ft 0kts
16-Aug-20 09:14 42.418518 -124.423619 166 17ft 0kts

Navigation Log

Ident Type
Flight plan parsing failed, navigation log unavailable